Time;durP1;ratioP1;P1;durP2;ratioP2;P2;SDS_P1;SDS_P2;PMS_P1;PMS_P2;Temp;Humidity;BMP_temperature;BMP_pressure;BME280_temperature;BME280_humidity;BME280_pressure;Samples;Min_cycle;Max_cycle;Signal;HPM_P1;HPM_P2
2021/03/01 00:02:25;;;;;;;14.35;6.00;;;3.80;99.90;;;;;;4973728;28;20049;-61
2021/03/01 00:04:50;;;;;;;16.45;5.97;;;3.80;99.90;;;;;;4973633;28;20035;-60
2021/03/01 00:07:16;;;;;;;12.43;5.85;;;3.80;99.90;;;;;;4973489;28;20061;-61
2021/03/01 00:09:42;;;;;;;15.70;6.53;;;3.80;99.90;;;;;;4956532;28;20035;-61
2021/03/01 00:12:09;;;;;;;12.98;6.13;;;3.90;99.90;;;;;;4973549;28;20030;-61
2021/03/01 00:14:34;;;;;;;12.85;5.47;;;4.00;99.90;;;;;;4973447;28;20041;-61
2021/03/01 00:17:00;;;;;;;16.35;6.25;;;4.00;99.90;;;;;;4973293;28;20117;-62
2021/03/01 00:19:28;;;;;;;13.20;5.18;;;4.10;99.90;;;;;;4973567;28;20111;-61
2021/03/01 00:21:54;;;;;;;11.98;5.10;;;4.10;99.90;;;;;;4956411;28;20038;-61
2021/03/01 00:24:20;;;;;;;14.88;5.43;;;4.00;99.90;;;;;;4973219;28;20118;-61
2021/03/01 00:26:45;;;;;;;15.25;6.15;;;4.10;99.90;;;;;;4973215;28;20118;-61
2021/03/01 00:29:11;;;;;;;14.93;7.28;;;4.00;99.90;;;;;;4974422;28;20027;-61
2021/03/01 00:31:37;;;;;;;14.23;5.72;;;3.90;99.90;;;;;;4977120;28;20039;-61
2021/03/01 00:34:03;;;;;;;17.67;6.45;;;4.00;99.90;;;;;;4977505;28;20046;-61
2021/03/01 00:36:28;;;;;;;13.82;6.20;;;3.80;99.90;;;;;;4977419;28;20121;-61
2021/03/01 00:38:54;;;;;;;13.60;5.63;;;3.70;99.90;;;;;;4976947;28;20480;-61
2021/03/01 00:41:20;;;;;;;16.05;6.30;;;3.60;99.90;;;;;;4977366;28;20038;-61
2021/03/01 00:43:46;;;;;;;12.95;5.95;;;3.50;99.90;;;;;;4977150;28;20523;-61
2021/03/01 00:46:11;;;;;;;15.02;6.47;;;3.30;99.90;;;;;;4977037;28;20122;-61
2021/03/01 00:48:37;;;;;;;12.95;5.43;;;3.20;99.90;;;;;;4977234;28;20026;-61
2021/03/01 00:51:03;;;;;;;15.25;5.75;;;3.20;99.90;;;;;;4977093;28;20043;-60
2021/03/01 00:53:29;;;;;;;13.13;5.85;;;3.10;99.90;;;;;;4977020;28;20042;-61
2021/03/01 00:55:55;;;;;;;13.48;5.20;;;3.10;99.90;;;;;;4976641;28;20030;-61
2021/03/01 00:58:21;;;;;;;14.05;5.53;;;3.10;99.90;;;;;;4977072;28;20090;-61
2021/03/01 01:00:50;;;;;;;16.35;5.25;;;3.10;99.90;;;;;;4976612;28;20035;-61
2021/03/01 01:03:19;;;;;;;15.48;6.20;;;3.00;99.90;;;;;;4977020;28;20038;-61
2021/03/01 01:05:45;;;;;;;16.50;6.03;;;2.90;99.90;;;;;;4976982;28;20118;-62
2021/03/01 01:08:11;;;;;;;16.90;6.28;;;2.90;99.90;;;;;;4976700;28;20041;-62
2021/03/01 01:10:37;;;;;;;17.40;6.95;;;2.70;99.90;;;;;;4976620;28;20031;-60
2021/03/01 01:13:04;;;;;;;15.38;6.28;;;2.60;99.90;;;;;;4959390;28;20038;-61
2021/03/01 01:15:31;;;;;;;14.13;6.18;;;2.60;99.90;;;;;;4976738;28;20031;-61
2021/03/01 01:17:57;;;;;;;14.52;5.88;;;2.60;99.90;;;;;;4976363;28;20038;-61
2021/03/01 01:20:23;;;;;;;17.88;6.53;;;2.60;99.90;;;;;;4976648;28;20053;-61
2021/03/01 01:22:49;;;;;;;21.00;6.55;;;2.60;99.90;;;;;;4975907;28;20444;-62
2021/03/01 01:25:16;;;;;;;22.08;6.90;;;2.60;99.90;;;;;;4976288;28;20054;-61
2021/03/01 01:27:42;;;;;;;13.63;6.03;;;2.60;99.90;;;;;;4976531;28;20543;-61
2021/03/01 01:30:19;;;;;;;15.18;6.97;;;2.50;99.90;;;;;;4976619;28;20035;-61
2021/03/01 01:32:45;;;;;;;16.98;6.18;;;2.60;99.90;;;;;;4976532;28;20042;-60
2021/03/01 01:35:12;;;;;;;13.88;6.40;;;2.50;99.90;;;;;;4976417;28;20035;-61
2021/03/01 01:37:39;;;;;;;15.57;6.85;;;2.40;99.90;;;;;;4976179;28;20504;-61
2021/03/01 01:40:09;;;;;;;21.15;7.80;;;2.40;99.90;;;;;;4958576;28;20034;-61
2021/03/01 01:42:35;;;;;;;16.30;6.45;;;2.20;99.90;;;;;;4942340;28;20035;-61
2021/03/01 01:45:09;;;;;;;17.05;7.03;;;2.20;99.90;;;;;;4975837;28;20102;-61
2021/03/01 01:47:35;;;;;;;14.98;6.35;;;2.20;99.90;;;;;;4976209;28;20027;-61
2021/03/01 01:50:05;;;;;;;15.60;6.80;;;2.20;99.90;;;;;;4976167;28;20439;-61
2021/03/01 01:52:31;;;;;;;18.98;8.00;;;2.20;99.90;;;;;;4976264;28;20551;-61
2021/03/01 01:54:57;;;;;;;18.10;7.78;;;2.00;99.90;;;;;;4958742;28;20037;-61
2021/03/01 01:57:23;;;;;;;15.07;6.63;;;2.00;99.90;;;;;;4976102;28;20027;-61
2021/03/01 01:59:49;;;;;;;16.08;6.45;;;1.90;99.90;;;;;;4958809;28;20026;-61
2021/03/01 02:02:15;;;;;;;18.75;7.40;;;1.90;99.90;;;;;;4958549;28;20035;-61
2021/03/01 02:05:05;;;;;;;17.15;7.65;;;1.80;99.90;;;;;;4975981;28;20361;-61
2021/03/01 02:07:39;;;;;;;15.25;7.40;;;1.80;99.90;;;;;;4975644;28;20027;-61
2021/03/01 02:10:18;;;;;;;20.35;7.85;;;1.70;99.90;;;;;;4958542;28;20550;-62
2021/03/01 02:13:10;;;;;;;18.08;7.35;;;1.70;99.90;;;;;;4958666;28;20118;-61
2021/03/01 02:15:52;;;;;;;16.48;7.00;;;1.70;99.90;;;;;;4959136;28;20039;-60
2021/03/01 02:18:18;;;;;;;20.90;6.55;;;1.70;99.90;;;;;;4975727;28;20035;-61
2021/03/01 02:20:45;;;;;;;16.45;7.00;;;1.70;99.90;;;;;;4975629;28;20181;-61
2021/03/01 02:23:13;;;;;;;16.77;7.00;;;1.80;99.90;;;;;;4975263;28;20129;-60
2021/03/01 02:25:52;;;;;;;16.52;7.32;;;1.80;99.90;;;;;;4958102;28;20027;-62
2021/03/01 02:28:22;;;;;;;17.20;7.63;;;1.80;99.90;;;;;;4958431;28;20117;-61
2021/03/01 02:30:52;;;;;;;16.65;6.25;;;1.80;99.90;;;;;;4975508;28;20031;-61
2021/03/01 02:33:23;;;;;;;17.48;6.72;;;1.80;99.90;;;;;;4975418;28;20067;-60
2021/03/01 02:36:22;;;;;;;16.15;6.57;;;1.70;99.90;;;;;;4975369;28;20027;-61
2021/03/01 02:38:49;;;;;;;14.07;6.55;;;1.60;99.90;;;;;;4958160;28;20038;-62
2021/03/01 02:41:18;;;;;;;15.90;6.72;;;1.70;99.90;;;;;;4957948;28;20078;-61
2021/03/01 02:43:44;;;;;;;17.73;7.15;;;1.80;99.90;;;;;;4957797;28;20045;-61
2021/03/01 02:46:11;;;;;;;20.58;6.82;;;1.80;99.90;;;;;;4957882;28;20031;-61
2021/03/01 02:48:40;;;;;;;20.95;7.07;;;1.80;99.90;;;;;;4975008;28;20049;-61
2021/03/01 02:51:07;;;;;;;18.92;6.78;;;1.50;99.90;;;;;;4958095;28;20030;-61
2021/03/01 02:53:35;;;;;;;17.85;7.18;;;1.60;99.90;;;;;;4974848;28;20058;-61
2021/03/01 02:56:02;;;;;;;17.70;7.38;;;1.60;99.90;;;;;;4974827;28;20042;-62
2021/03/01 02:58:35;;;;;;;16.90;6.72;;;1.50;99.90;;;;;;4957785;28;20093;-62
2021/03/01 03:01:02;;;;;;;19.38;8.15;;;1.40;99.90;;;;;;4957672;28;20066;-61
2021/03/01 03:03:29;;;;;;;14.52;6.63;;;1.20;99.90;;;;;;4974772;28;20041;-61
2021/03/01 03:05:56;;;;;;;19.80;8.13;;;1.20;99.90;;;;;;4957567;28;20030;-62
2021/03/01 03:08:24;;;;;;;21.48;8.02;;;1.20;99.90;;;;;;4957312;28;20038;-61
2021/03/01 03:10:51;;;;;;;17.05;7.22;;;1.20;99.90;;;;;;4957519;28;20058;-62
2021/03/01 03:13:20;;;;;;;22.42;8.18;;;1.20;99.90;;;;;;4974326;28;20038;-62
2021/03/01 03:15:49;;;;;;;19.83;7.90;;;1.10;99.90;;;;;;4974588;28;20031;-61
2021/03/01 03:18:18;;;;;;;19.83;7.20;;;1.10;99.90;;;;;;4957580;28;20085;-62
2021/03/01 03:20:44;;;;;;;17.60;6.75;;;1.10;99.90;;;;;;4957381;28;20047;-60
2021/03/01 03:23:10;;;;;;;16.95;6.30;;;1.10;99.90;;;;;;4974054;28;20051;-61
2021/03/01 03:25:36;;;;;;;19.00;6.60;;;1.20;99.90;;;;;;4974551;28;20027;-60
2021/03/01 03:28:06;;;;;;;20.85;7.15;;;1.20;99.90;;;;;;4974316;28;20075;-61
2021/03/01 03:30:33;;;;;;;14.55;6.53;;;1.00;99.90;;;;;;4974080;28;20490;-62
2021/03/01 03:32:59;;;;;;;14.57;6.90;;;1.10;99.90;;;;;;4973984;28;20042;-61
2021/03/01 03:35:26;;;;;;;18.55;7.03;;;1.00;99.90;;;;;;4974219;28;20035;-61
2021/03/01 03:38:18;;;;;;;16.38;7.32;;;1.00;99.90;;;;;;4973893;28;20484;-61
2021/03/01 03:40:48;;;;;;;21.55;7.97;;;0.90;99.90;;;;;;4974249;28;20031;-61
2021/03/01 03:43:15;;;;;;;22.60;7.82;;;0.80;99.90;;;;;;4957071;28;20175;-60
2021/03/01 03:45:42;;;;;;;20.27;8.07;;;1.00;99.90;;;;;;4956948;28;20069;-61
2021/03/01 03:48:09;;;;;;;16.40;7.35;;;1.00;99.90;;;;;;4940891;28;20076;-62
2021/03/01 03:50:35;;;;;;;19.63;7.82;;;1.00;99.90;;;;;;4973847;28;20054;-61
2021/03/01 03:53:11;;;;;;;23.40;8.25;;;1.00;99.90;;;;;;4956798;28;20041;-61
2021/03/01 03:55:40;;;;;;;23.55;10.10;;;1.00;99.90;;;;;;4973875;28;20041;-61
2021/03/01 03:58:12;;;;;;;21.60;8.55;;;1.00;99.90;;;;;;4956814;28;20023;-61
2021/03/01 04:00:39;;;;;;;19.88;8.75;;;1.10;99.90;;;;;;4957193;28;20031;-61
2021/03/01 04:03:10;;;;;;;16.52;7.65;;;1.30;99.90;;;;;;4956308;28;20174;-61
2021/03/01 04:05:39;;;;;;;16.20;7.72;;;1.30;99.90;;;;;;4973251;28;20390;-61
2021/03/01 04:08:10;;;;;;;23.45;8.52;;;1.30;99.90;;;;;;4956265;28;20487;-61
2021/03/01 04:10:36;;;;;;;21.80;8.70;;;1.30;99.90;;;;;;4973658;28;20035;-61
2021/03/01 04:13:08;;;;;;;19.05;8.10;;;1.40;99.90;;;;;;4956162;28;20035;-61
2021/03/01 04:15:36;;;;;;;17.45;7.20;;;1.30;99.90;;;;;;4956818;28;20038;-61
2021/03/01 04:18:04;;;;;;;20.10;8.23;;;1.40;99.90;;;;;;4956672;28;20035;-61
2021/03/01 04:20:34;;;;;;;20.67;8.52;;;1.50;99.90;;;;;;4956795;28;20435;-60
2021/03/01 04:23:01;;;;;;;18.42;7.88;;;1.50;99.90;;;;;;4956317;28;20046;-61
2021/03/01 04:25:27;;;;;;;19.55;8.18;;;1.50;99.90;;;;;;4956511;28;20110;-62
2021/03/01 04:27:54;;;;;;;19.77;8.07;;;1.50;99.90;;;;;;4956393;28;20043;-61
2021/03/01 04:30:22;;;;;;;18.63;7.88;;;1.50;99.90;;;;;;4956322;28;20035;-61
2021/03/01 04:32:49;;;;;;;19.60;8.15;;;1.60;99.90;;;;;;4973629;28;20054;-62
2021/03/01 04:35:19;;;;;;;18.73;7.90;;;1.60;99.90;;;;;;4956135;28;20038;-61
2021/03/01 04:37:46;;;;;;;18.58;7.88;;;1.60;99.90;;;;;;4973523;28;20034;-61
2021/03/01 04:40:14;;;;;;;18.83;8.20;;;1.60;99.90;;;;;;4945949;28;20559;-61
2021/03/01 04:42:45;;;;;;;21.77;8.95;;;1.50;99.90;;;;;;4978548;28;20038;-61
2021/03/01 04:45:15;;;;;;;16.08;7.90;;;1.40;99.90;;;;;;4974461;28;20105;-61
2021/03/01 04:47:43;;;;;;;21.58;8.13;;;1.40;99.90;;;;;;4956243;28;20027;-60
2021/03/01 04:50:13;;;;;;;20.17;8.68;;;1.40;99.90;;;;;;4956102;28;20427;-61
2021/03/01 04:52:40;;;;;;;22.73;8.05;;;1.40;99.90;;;;;;4976325;28;20551;-62
2021/03/01 04:55:07;;;;;;;18.20;8.70;;;1.40;99.90;;;;;;4986952;28;20488;-62
2021/03/01 04:57:34;;;;;;;21.65;8.23;;;1.30;99.90;;;;;;4992737;28;20037;-62
2021/03/01 05:00:02;;;;;;;16.73;7.88;;;1.30;99.90;;;;;;4991154;28;20476;-62
2021/03/01 05:02:30;;;;;;;26.98;8.77;;;1.10;99.90;;;;;;4991256;28;20092;-63
2021/03/01 05:05:00;;;;;;;23.27;8.20;;;1.10;99.90;;;;;;4991439;28;20054;-62
2021/03/01 05:07:28;;;;;;;18.88;8.05;;;1.10;99.90;;;;;;4991496;28;20161;-62
2021/03/01 05:09:56;;;;;;;21.02;9.02;;;1.10;99.90;;;;;;4992318;28;20043;-62
2021/03/01 05:12:22;;;;;;;20.20;7.47;;;1.10;99.90;;;;;;4992528;28;20062;-62
2021/03/01 05:14:48;;;;;;;18.85;8.18;;;1.00;99.90;;;;;;4991653;28;20069;-61
2021/03/01 05:17:13;;;;;;;18.77;8.75;;;0.90;99.90;;;;;;4996032;28;20475;-60
2021/03/01 05:19:39;;;;;;;17.95;8.35;;;0.80;99.90;;;;;;4996333;28;20034;-62
2021/03/01 05:22:05;;;;;;;19.00;8.45;;;0.90;99.90;;;;;;4976764;28;20042;-62
2021/03/01 05:24:31;;;;;;;18.88;7.53;;;0.90;99.90;;;;;;4976486;28;20106;-62
2021/03/01 05:26:58;;;;;;;18.55;8.32;;;0.80;99.90;;;;;;4976565;28;20117;-62
2021/03/01 05:29:24;;;;;;;19.75;7.45;;;0.80;99.90;;;;;;4975008;28;20023;-63
2021/03/01 05:31:50;;;;;;;18.13;8.00;;;0.70;99.90;;;;;;4975288;28;20391;-62
2021/03/01 05:34:16;;;;;;;19.85;8.02;;;0.80;99.90;;;;;;4976326;28;20396;-61
2021/03/01 05:36:43;;;;;;;18.17;7.72;;;0.80;99.90;;;;;;4976431;28;20468;-61
2021/03/01 05:39:09;;;;;;;21.15;8.65;;;0.80;99.90;;;;;;4976093;28;20106;-62
2021/03/01 05:41:35;;;;;;;18.15;8.68;;;0.80;99.90;;;;;;4975927;28;20118;-62
2021/03/01 05:44:01;;;;;;;20.65;7.80;;;0.80;99.90;;;;;;4976004;28;20181;-62
2021/03/01 05:46:28;;;;;;;20.60;8.80;;;0.80;99.90;;;;;;4967041;28;20027;-63
2021/03/01 05:48:54;;;;;;;20.88;8.13;;;0.80;99.90;;;;;;4956763;29;20506;-62
2021/03/01 05:51:24;;;;;;;17.35;7.95;;;0.80;99.90;;;;;;4956753;28;20074;-62
2021/03/01 05:53:54;;;;;;;21.17;8.15;;;0.80;99.90;;;;;;4956824;28;20027;-62
2021/03/01 05:56:24;;;;;;;17.25;7.93;;;0.80;99.90;;;;;;4955317;29;20037;-62
2021/03/01 05:58:51;;;;;;;18.60;7.72;;;0.80;99.90;;;;;;4959056;28;20042;-63
2021/03/01 06:01:17;;;;;;;19.70;7.80;;;0.80;99.90;;;;;;4974999;28;20135;-63
2021/03/01 06:03:44;;;;;;;18.80;7.93;;;0.80;99.90;;;;;;4975483;28;20122;-62
2021/03/01 06:06:12;;;;;;;69.65;26.15;;;0.80;99.90;;;;;;4975319;28;20432;-62
2021/03/01 06:08:39;;;;;;;22.00;9.20;;;0.70;99.90;;;;;;4975665;28;20035;-62
2021/03/01 06:11:07;;;;;;;18.27;7.90;;;0.70;99.90;;;;;;4974372;28;20023;-63
2021/03/01 06:13:35;;;;;;;18.42;8.10;;;0.70;99.90;;;;;;4958022;28;20468;-63
2021/03/01 06:16:03;;;;;;;22.13;8.40;;;0.60;99.90;;;;;;4973767;28;20037;-62
2021/03/01 06:18:30;;;;;;;20.27;7.82;;;0.60;99.90;;;;;;4975251;28;20553;-62
2021/03/01 06:21:22;;;;;;;22.52;8.32;;;0.70;99.90;;;;;;4975190;28;20042;-63
2021/03/01 06:23:49;;;;;;;19.83;8.13;;;0.60;99.90;;;;;;4975316;28;20496;-62
2021/03/01 06:26:26;;;;;;;24.40;8.77;;;0.70;99.90;;;;;;4973846;28;20038;-62
2021/03/01 06:29:03;;;;;;;20.33;8.45;;;0.70;99.90;;;;;;4974238;28;20042;-62
2021/03/01 06:31:39;;;;;;;40.67;15.88;;;0.70;99.90;;;;;;4974810;28;20199;-62
2021/03/01 06:34:31;;;;;;;21.70;8.60;;;0.60;99.90;;;;;;4975247;28;20031;-62
2021/03/01 06:37:16;;;;;;;18.50;7.70;;;0.70;99.90;;;;;;4975353;28;20035;-63
2021/03/01 06:39:51;;;;;;;20.55;7.68;;;0.60;99.90;;;;;;4975316;28;20027;-62
2021/03/01 06:42:20;;;;;;;19.38;8.60;;;0.60;99.90;;;;;;4974702;28;20046;-63
2021/03/01 06:45:06;;;;;;;19.75;8.57;;;0.70;99.90;;;;;;4975001;28;20101;-64
2021/03/01 06:47:47;;;;;;;19.70;7.60;;;0.80;99.90;;;;;;4965839;28;20449;-65
2021/03/01 06:50:36;;;;;;;24.67;8.45;;;0.90;99.90;;;;;;4974971;28;20035;-63
2021/03/01 06:53:11;;;;;;;19.27;8.52;;;1.00;99.90;;;;;;4974838;28;20050;-63
2021/03/01 06:56:07;;;;;;;20.40;8.35;;;1.00;99.90;;;;;;4974152;28;20031;-63
2021/03/01 06:58:37;;;;;;;28.35;9.18;;;1.10;99.90;;;;;;4974791;28;20034;-63
2021/03/01 07:01:16;;;;;;;18.37;8.10;;;1.20;99.90;;;;;;4974160;28;20043;-63
2021/03/01 07:03:48;;;;;;;28.95;11.02;;;1.40;99.90;;;;;;4973718;28;20309;-63
2021/03/01 07:06:14;;;;;;;27.95;10.88;;;1.40;99.90;;;;;;4974600;28;20114;-64
2021/03/01 07:08:48;;;;;;;18.63;8.45;;;1.40;99.90;;;;;;4973382;28;20118;-64
2021/03/01 07:11:24;;;;;;;22.90;8.77;;;1.50;99.90;;;;;;4974474;28;20038;-63
2021/03/01 07:13:51;;;;;;;40.05;9.10;;;1.40;99.90;;;;;;4974338;28;20567;-64
2021/03/01 07:16:17;;;;;;;19.00;8.45;;;1.50;99.90;;;;;;4974355;28;20035;-64
2021/03/01 07:18:44;;;;;;;21.05;8.70;;;1.60;99.90;;;;;;4974563;28;20134;-63
2021/03/01 07:21:13;;;;;;;18.25;8.10;;;1.70;99.90;;;;;;4974491;28;20106;-63
2021/03/01 07:23:46;;;;;;;26.00;8.75;;;1.80;99.90;;;;;;4974257;28;20046;-64
2021/03/01 07:26:14;;;;;;;23.52;8.65;;;1.90;99.90;;;;;;4974189;28;20058;-63
2021/03/01 07:29:04;;;;;;;26.20;8.60;;;2.00;99.90;;;;;;4972816;28;20079;-63
2021/03/01 07:31:34;;;;;;;21.08;8.85;;;2.10;99.90;;;;;;4967992;28;20419;-63
2021/03/01 07:34:09;;;;;;;24.25;8.18;;;2.30;99.90;;;;;;4974226;28;20082;-62
2021/03/01 07:36:36;;;;;;;19.25;8.60;;;2.40;99.90;;;;;;4973752;28;20026;-63
2021/03/01 07:39:10;;;;;;;25.73;9.40;;;2.50;99.90;;;;;;4973372;28;20035;-64
2021/03/01 07:41:45;;;;;;;22.50;8.98;;;2.60;99.90;;;;;;4974118;28;20027;-64
2021/03/01 07:44:13;;;;;;;22.48;9.13;;;2.80;99.90;;;;;;4972489;28;20070;-63
2021/03/01 07:46:47;;;;;;;21.02;7.97;;;2.90;99.90;;;;;;4972683;28;20110;-64
2021/03/01 07:49:26;;;;;;;21.00;7.85;;;3.10;99.90;;;;;;4972513;28;20476;-63
2021/03/01 07:51:52;;;;;;;20.83;9.27;;;3.20;99.90;;;;;;4974085;28;20065;-63
2021/03/01 07:54:41;;;;;;;21.77;8.55;;;3.40;99.90;;;;;;4973932;28;20059;-63
2021/03/01 07:57:08;;;;;;;18.05;8.20;;;3.40;99.90;;;;;;4972658;28;20037;-62
2021/03/01 07:59:34;;;;;;;18.08;8.30;;;3.50;99.90;;;;;;4972486;28;20476;-62
2021/03/01 08:02:35;;;;;;;16.48;7.65;;;3.60;99.90;;;;;;4973739;28;20058;-62
2021/03/01 08:05:28;;;;;;;20.95;8.40;;;3.80;99.90;;;;;;4932665;29;20067;-63
2021/03/01 08:07:54;;;;;;;18.48;8.38;;;3.80;99.90;;;;;;4972801;28;20097;-63
2021/03/01 08:10:40;;;;;;;20.40;8.18;;;3.90;99.90;;;;;;4972437;28;20373;-63
2021/03/01 08:13:07;;;;;;;18.70;7.38;;;4.00;99.90;;;;;;4966242;28;20043;-64
2021/03/01 08:15:43;;;;;;;19.35;8.50;;;4.10;99.90;;;;;;4973189;28;20117;-63
2021/03/01 08:18:13;;;;;;;16.85;8.02;;;4.20;99.90;;;;;;4973525;28;20109;-64
2021/03/01 08:20:53;;;;;;;18.33;8.23;;;4.30;99.90;;;;;;4973564;28;20107;-63
2021/03/01 08:23:20;;;;;;;21.60;9.15;;;4.50;99.90;;;;;;4971992;28;20055;-64
2021/03/01 08:25:50;;;;;;;18.60;8.07;;;4.60;99.90;;;;;;4973424;28;20039;-64
2021/03/01 08:28:22;;;;;;;19.92;8.43;;;4.60;99.90;;;;;;4973356;28;20090;-63
2021/03/01 08:31:15;;;;;;;21.33;7.78;;;4.70;99.90;;;;;;4973440;28;20039;-63
2021/03/01 08:33:41;;;;;;;18.25;7.88;;;4.90;99.90;;;;;;4972953;28;20039;-64
2021/03/01 08:36:15;;;;;;;17.73;8.13;;;5.10;99.90;;;;;;4973462;28;20539;-63
2021/03/01 08:38:47;;;;;;;28.05;8.20;;;5.20;99.90;;;;;;4973237;28;20039;-63
2021/03/01 08:41:18;;;;;;;16.85;7.63;;;5.30;99.90;;;;;;4973235;28;20088;-64
2021/03/01 08:43:48;;;;;;;;;;;5.40;99.90;;;;;;4973498;28;20503;-64
2021/03/01 08:46:14;;;;;;;21.45;7.93;;;5.60;99.90;;;;;;4973203;28;19957;-62
2021/03/01 08:48:46;;;;;;;23.52;8.82;;;5.80;99.90;;;;;;4973185;28;20548;-64
2021/03/01 08:51:14;;;;;;;19.98;8.45;;;5.90;99.90;;;;;;4976051;28;20038;-63
2021/03/01 08:53:40;;;;;;;21.08;8.10;;;6.00;99.90;;;;;;4959469;28;20039;-65
2021/03/01 08:56:15;;;;;;;20.42;8.15;;;6.20;99.90;;;;;;4977121;28;20046;-63
2021/03/01 08:58:41;;;;;;;17.60;7.10;;;6.30;99.90;;;;;;4975812;28;20448;-64
2021/03/01 09:01:07;;;;;;;15.20;7.45;;;6.50;99.90;;;;;;4977092;28;20066;-62
2021/03/01 09:03:38;;;;;;;19.73;7.45;;;6.80;99.90;;;;;;4976825;28;20039;-64
2021/03/01 09:06:16;;;;;;;16.38;6.85;;;6.90;99.90;;;;;;4976681;28;20520;-63
2021/03/01 09:08:53;;;;;;;17.55;7.10;;;7.10;99.90;;;;;;4976299;28;20039;-62
2021/03/01 09:11:29;;;;;;;13.27;6.38;;;7.30;99.90;;;;;;4976777;28;20480;-63
2021/03/01 09:14:00;;;;;;;17.13;7.80;;;7.40;99.90;;;;;;4976585;28;20391;-63
2021/03/01 09:16:32;;;;;;;19.90;8.60;;;7.60;99.90;;;;;;4969747;28;20080;-63
2021/03/01 09:19:11;;;;;;;15.40;7.50;;;7.60;99.90;;;;;;4976710;28;20046;-63
2021/03/01 09:21:41;;;;;;;20.35;9.45;;;7.80;99.90;;;;;;4975462;28;20035;-63
2021/03/01 09:24:10;;;;;;;14.07;7.63;;;8.00;99.90;;;;;;4958939;28;20039;-63
2021/03/01 09:26:43;;;;;;;19.67;7.85;;;8.30;99.90;;;;;;4976512;28;20480;-66
2021/03/01 09:29:19;;;;;;;15.73;6.50;;;8.00;99.90;;;;;;4976378;28;20507;-64
2021/03/01 09:31:52;;;;;;;13.05;6.78;;;8.00;99.90;;;;;;4960140;28;20038;-66
2021/03/01 09:34:21;;;;;;;13.70;7.18;;;8.20;99.90;;;;;;4976379;28;20026;-65
2021/03/01 09:36:48;;;;;;;19.25;7.90;;;8.40;99.90;;;;;;4975357;28;20034;-64
2021/03/01 09:39:25;;;;;;;12.05;6.38;;;8.60;99.90;;;;;;4976372;28;20396;-63
2021/03/01 09:41:53;;;;;;;13.70;7.00;;;8.80;99.90;;;;;;4974952;28;20104;-64
2021/03/01 09:44:24;;;;;;;17.65;7.55;;;9.00;99.50;;;;;;4958888;28;20073;-65
2021/03/01 09:46:53;;;;;;;14.33;6.63;;;9.20;99.30;;;;;;4974967;28;20027;-64
2021/03/01 09:49:18;;;;;;;14.65;5.75;;;9.30;99.20;;;;;;4976212;28;20567;-64
2021/03/01 09:51:46;;;;;;;14.15;6.28;;;9.50;99.10;;;;;;4974840;28;20125;-64
2021/03/01 09:54:13;;;;;;;13.00;6.10;;;9.60;98.60;;;;;;4976080;28;20035;-64
2021/03/01 09:56:42;;;;;;;12.48;6.18;;;9.70;98.30;;;;;;4958193;28;20035;-63
2021/03/01 09:59:09;;;;;;;13.05;6.65;;;9.90;98.00;;;;;;4976135;28;20039;-65
2021/03/01 10:01:35;;;;;;;13.18;6.32;;;10.00;97.80;;;;;;4974783;28;20041;-64
2021/03/01 10:04:02;;;;;;;12.68;5.95;;;10.00;97.50;;;;;;4975967;28;20043;-65
2021/03/01 10:06:38;;;;;;;14.45;6.63;;;10.20;97.40;;;;;;4975506;28;20113;-65
2021/03/01 10:09:09;;;;;;;11.77;6.22;;;10.30;97.00;;;;;;4974405;28;20030;-63
2021/03/01 10:11:35;;;;;;;;;;;10.40;96.90;;;;;;4975059;28;20034;-64
2021/03/01 10:14:11;;;;;;;13.68;6.18;;;10.60;96.60;;;;;;4974297;28;19959;-63
2021/03/01 10:16:41;;;;;;;14.75;7.13;;;10.60;96.60;;;;;;4975417;28;20031;-63
2021/03/01 10:19:19;;;;;;;14.27;6.82;;;10.80;96.10;;;;;;4975252;28;20078;-65
2021/03/01 10:22:02;;;;;;;13.73;6.72;;;11.00;95.50;;;;;;4975413;28;20476;-63
2021/03/01 10:24:28;;;;;;;15.63;6.72;;;11.00;95.30;;;;;;4974814;28;20098;-63
2021/03/01 10:27:07;;;;;;;12.18;5.90;;;11.30;95.50;;;;;;4975659;28;20038;-63
2021/03/01 10:29:37;;;;;;;13.77;7.35;;;11.10;95.20;;;;;;4973651;28;20031;-63
2021/03/01 10:32:16;;;;;;;11.77;6.57;;;11.30;94.80;;;;;;4975451;28;20035;-64
2021/03/01 10:34:41;;;;;;;13.80;6.45;;;11.80;94.20;;;;;;4975097;28;20518;-63
2021/03/01 10:37:13;;;;;;;18.20;6.72;;;12.10;93.40;;;;;;4974741;28;20043;-64
2021/03/01 10:39:42;;;;;;;11.77;6.47;;;11.90;94.00;;;;;;4974801;28;20542;-64
2021/03/01 10:42:16;;;;;;;16.83;7.30;;;12.10;93.10;;;;;;4973353;28;20038;-65
2021/03/01 10:44:46;;;;;;;14.20;7.50;;;12.40;92.60;;;;;;4974960;28;20042;-63
2021/03/01 10:47:29;;;;;;;14.85;7.00;;;12.60;91.80;;;;;;4973375;28;20058;-63
2021/03/01 10:50:02;;;;;;;13.38;7.28;;;12.40;92.90;;;;;;4974494;28;20050;-63
2021/03/01 10:52:29;;;;;;;12.38;5.97;;;12.60;91.00;;;;;;4975039;28;20038;-63
2021/03/01 10:54:57;;;;;;;17.42;9.80;;;13.10;90.90;;;;;;4974830;28;20026;-64
2021/03/01 10:57:26;;;;;;;14.25;6.80;;;13.50;90.00;;;;;;4974893;28;20035;-63
2021/03/01 10:59:58;;;;;;;13.63;7.60;;;13.40;89.30;;;;;;4974455;28;20482;-63
2021/03/01 11:02:25;;;;;;;12.35;6.40;;;13.60;88.20;;;;;;4973637;28;20039;-63
2021/03/01 11:04:51;;;;;;;14.63;6.75;;;13.10;90.00;;;;;;4974379;28;20030;-63
2021/03/01 11:07:18;;;;;;;15.15;7.18;;;13.90;89.20;;;;;;4974698;28;20054;-63
2021/03/01 11:09:44;;;;;;;12.77;7.18;;;14.10;85.20;;;;;;4974545;28;20030;-62
2021/03/01 11:12:11;;;;;;;12.45;7.13;;;14.10;83.30;;;;;;4973704;28;20042;-62
2021/03/01 11:14:37;;;;;;;12.85;6.95;;;14.50;82.20;;;;;;4973072;28;20035;-62
2021/03/01 11:17:04;;;;;;;15.85;7.85;;;14.90;81.60;;;;;;4974328;28;20034;-62
2021/03/01 11:19:30;;;;;;;10.43;6.25;;;14.40;82.60;;;;;;4971355;28;20027;-63
2021/03/01 11:21:56;;;;;;;13.77;6.53;;;15.30;77.60;;;;;;4973861;28;20498;-63
2021/03/01 11:24:22;;;;;;;14.32;6.80;;;15.50;74.10;;;;;;4973947;28;20050;-63
2021/03/01 11:26:52;;;;;;;11.70;6.05;;;16.40;70.90;;;;;;4973967;28;20041;-61
2021/03/01 11:29:19;;;;;;;11.70;6.25;;;17.30;64.90;;;;;;4974028;28;20113;-60
2021/03/01 11:31:45;;;;;;;12.05;6.63;;;18.70;59.40;;;;;;4974033;28;20026;-61
2021/03/01 11:34:15;;;;;;;14.25;6.47;;;17.90;59.90;;;;;;4974288;28;20035;-62
2021/03/01 11:36:41;;;;;;;13.15;6.72;;;18.30;60.40;;;;;;4973702;28;20570;-62
2021/03/01 11:39:13;;;;;;;10.77;5.97;;;20.60;54.80;;;;;;4974225;28;20029;-61
2021/03/01 11:41:38;;;;;;;11.18;5.95;;;19.90;51.60;;;;;;4973598;28;20037;-63
2021/03/01 11:44:06;;;;;;;11.13;6.82;;;18.50;53.60;;;;;;4956116;28;20027;-64
2021/03/01 11:46:31;;;;;;;11.88;7.35;;;20.50;54.40;;;;;;4973442;28;20042;-64
2021/03/01 11:48:57;;;;;;;12.75;7.13;;;20.10;54.00;;;;;;4973915;28;20035;-62
2021/03/01 11:51:23;;;;;;;12.73;7.47;;;20.00;52.60;;;;;;4973593;28;20038;-64
2021/03/01 11:53:49;;;;;;;10.15;6.75;;;21.10;50.90;;;;;;4972884;28;20067;-64
2021/03/01 11:56:15;;;;;;;12.05;6.22;;;22.10;48.20;;;;;;4972328;28;20053;-63
2021/03/01 11:58:41;;;;;;;10.20;5.90;;;22.70;45.20;;;;;;4972121;28;20400;-64
2021/03/01 12:01:08;;;;;;;14.98;6.97;;;22.60;45.20;;;;;;4972234;28;20045;-63
2021/03/01 12:03:35;;;;;;;11.27;7.20;;;22.60;45.50;;;;;;4972540;28;20476;-63
2021/03/01 12:06:02;;;;;;;12.50;7.25;;;23.60;45.70;;;;;;4972472;28;20114;-63
2021/03/01 12:08:28;;;;;;;12.82;6.72;;;22.60;45.40;;;;;;4973684;28;20030;-63
2021/03/01 12:10:54;;;;;;;13.30;7.15;;;22.80;45.70;;;;;;4973404;28;20026;-64
2021/03/01 12:13:20;;;;;;;9.77;6.55;;;23.50;43.30;;;;;;4973410;28;20392;-63
2021/03/01 12:15:46;;;;;;;10.82;6.88;;;23.80;41.40;;;;;;4973530;28;20035;-63
2021/03/01 12:18:13;;;;;;;14.57;6.68;;;21.80;43.50;;;;;;4988197;28;20392;-63
2021/03/01 12:20:39;;;;;;;12.63;6.88;;;21.20;46.60;;;;;;4973421;28;20653;-63
2021/03/01 12:23:05;;;;;;;12.20;6.80;;;21.70;45.00;;;;;;4973152;28;20039;-63
2021/03/01 12:25:30;;;;;;;13.82;7.40;;;22.50;45.10;;;;;;4973045;28;20031;-63
2021/03/01 12:27:56;;;;;;;12.20;7.20;;;23.20;44.20;;;;;;4972629;28;20045;-63
2021/03/01 12:30:22;;;;;;;17.35;7.40;;;23.70;44.70;;;;;;4972093;28;20050;-64
2021/03/01 12:32:48;;;;;;;11.38;6.10;;;23.40;43.40;;;;;;4971695;28;20042;-64
2021/03/01 12:35:14;;;;;;;14.40;7.28;;;24.00;42.80;;;;;;4972329;28;20042;-63
2021/03/01 12:37:40;;;;;;;14.85;8.45;;;23.70;43.40;;;;;;4973094;28;20157;-64
2021/03/01 12:40:07;;;;;;;14.18;7.63;;;20.50;45.70;;;;;;4973492;28;20110;-62
2021/03/01 12:42:33;;;;;;;19.13;7.47;;;21.00;45.60;;;;;;4973004;28;20484;-64
2021/03/01 12:45:00;;;;;;;14.82;7.15;;;21.80;45.50;;;;;;4973390;28;20035;-64
2021/03/01 12:47:26;;;;;;;14.13;7.20;;;22.20;45.20;;;;;;4972254;28;20035;-65
2021/03/01 12:49:52;;;;;;;10.93;6.70;;;19.60;47.30;;;;;;4957290;28;20507;-64
2021/03/01 12:52:17;;;;;;;13.35;7.00;;;20.50;45.90;;;;;;4994756;28;20045;-62
2021/03/01 12:54:43;;;;;;;14.15;7.10;;;19.80;48.10;;;;;;5011811;28;20136;-64
2021/03/01 12:57:10;;;;;;;10.82;7.10;;;21.30;48.00;;;;;;4978104;28;20034;-63
2021/03/01 12:59:36;;;;;;;15.82;6.78;;;22.40;45.30;;;;;;5011556;28;20029;-64